Time;durP1;ratioP1;P1;durP2;ratioP2;P2;SDS_P1;SDS_P2;PMS_P1;PMS_P2;Temp;Humidity;BMP_temperature;BMP_pressure;BME280_temperature;BME280_humidity;BME280_pressure;Samples;Min_cycle;Max_cycle;Signal;HPM_P1;HPM_P2
2022/10/20 13:16:26;;;;;;;;;;;;;;;;;;5275843;27;19948;-47
2022/10/20 13:20:39;;;;;;;;;;;;;;;;;;5237157;27;19957;-36
2022/10/20 13:26:13;;;;;;;;;;;;;;;22.94;38.17;101611.72;5239497;27;12224;-46
2022/10/20 13:34:41;;;;;;;;;;;;;;;22.31;37.92;101609.81;5262894;27;11881;-38
2022/10/20 13:37:26;;;;;;;;;;;;;;;22.07;38.73;101612.53;5202199;28;5905;-40
2022/10/20 13:45:03;;;;;;;;;;;;;;;22.43;37.37;101605.81;5273472;27;113911;-35
2022/10/20 13:47:44;;;;;;;;;;;;;;;22.59;37.08;101602.53;5255978;28;1222;-36
2022/10/20 14:11:36;;;;;;;;;;;;;;;24.13;35.27;101587.06;5257755;27;11909;-45
2022/10/20 14:16:26;;;;;;;;;;;;;;;22.12;40.53;101590.28;5244976;27;11930;-39
2022/10/20 14:22:45;;;;;;;;;;;;;;;22.19;42.69;101588.25;5251520;27;11940;-46
2022/10/20 14:30:16;;;;;;;;;;;;;;;;;;5190540;27;11768;-41
2022/10/20 14:32:51;;;;;;;;;;;;;;;;;;5183826;28;11852;-39
2022/10/20 14:35:30;;;;;;;;;;;;;;;;;;5166150;28;7073;-43
2022/10/20 14:38:07;;;;;;;;;;;;;;;;;;5164990;28;7943;-49
2022/10/20 14:40:41;;;;;;;;;;;;;;;;;;5165815;28;7004;-44
2022/10/20 14:43:19;;;;;;;;;;;;;;;;;;5146336;28;6854;-44
2022/10/20 14:45:56;;;;;;;;;;;;;;;;;;5151950;28;12094;-36
2022/10/20 14:48:34;;;;;;;;;;;;;;;;;;5145692;28;6990;-44
2022/10/20 14:51:25;;;;;;;;;;;;;;;;;;5145508;28;7040;-34
2022/10/20 14:54:16;;;;;;;;;;;;;;;;;;5145239;28;7057;-45
2022/10/20 14:56:50;;;;;;;;;;;;;;;;;;5145409;28;6863;-41
2022/10/20 14:59:30;;;;;;;;;;;;;;;;;;5145242;28;6892;-42
2022/10/20 15:02:09;;;;;;;;;;;;;;;;;;5145069;28;6883;-47
2022/10/20 15:04:44;;;;;;;;;;;;;;;;;;5160324;28;6856;-46
2022/10/20 15:07:22;;;;;;;;;;;;;;;;;;5145127;28;6997;-44
2022/10/20 15:09:58;;;;;;;;;;;;;;;;;;5143956;28;6936;-42
2022/10/20 15:12:41;;;;;;;;;;;;;;;;;;5144801;28;7036;-36
2022/10/20 15:15:20;;;;;;;;;;;;;;;;;;5144796;28;6938;-39
2022/10/20 15:18:09;;;;;;;;;;;;;;;;;;5144633;28;6946;-34
2022/10/20 15:20:47;;;;;;;;;;;;;;;;;;5144716;28;6909;-43
2022/10/20 15:23:22;;;;;;;;;;;;;;;;;;5144808;28;6909;-43
2022/10/20 15:48:25;;;;;;;;;;;;;;;;;;5198804;27;11489;-74
2022/10/20 15:50:58;;;;;;;;;;;;;;;;;;5155694;28;11722;-76
2022/10/20 15:53:34;;;;;;;;;;;;;;;;;;5171483;28;10411;-75
2022/10/20 15:56:08;;;;;;;;;;;;;;;;;;5194364;28;18983;-77
2022/10/20 15:58:41;;;;;;;;;;;;;;;;;;5165192;28;7282;-75
2022/10/20 16:01:16;;;;;;;;;;;;;;;;;;5147735;28;12055;-75
2022/10/20 16:03:54;;;;;;;;;;;;;;;;;;5144950;28;6950;-74
2022/10/20 16:06:30;;;;;;;;;;;;;;;;;;5152794;28;72570;-74
2022/10/20 16:11:14;;;;;;;;;;;;;;;;;;5212466;28;12169;-77
2022/10/20 16:13:47;;;;;;;;;;;;;;;;;;5185612;28;7001;-73
2022/10/20 16:16:21;;;;;;;;;;;;;;;;;;5201209;28;7140;-76
2022/10/20 16:18:55;;;;;;;;;;;;;;;;;;5185885;28;6910;-74
2022/10/20 16:21:34;;;;;;;;;;;;;;;;;;5185159;28;7144;-74
2022/10/20 16:24:07;;;;;;;;;;;;;;;;;;5185704;28;6988;-75
2022/10/20 16:26:47;;;;;;;;;;;;;;;;;;5185685;28;7091;-74
2022/10/20 16:29:21;;;;;;;;;;;;;;;;;;4851036;28;10000098;-67
2022/10/20 16:31:59;;;;;;;;;;;;;;;;;;5198592;28;7158;-67
2022/10/20 16:34:32;;;;;;;;;;;;;;;;;;5183178;28;7147;-75
2022/10/20 16:37:10;;;;;;;;;;;;;;;;;;5182820;28;7026;-72
2022/10/20 16:39:44;;;;;;;;;;;;;;;;;;5183348;28;6896;-74
2022/10/20 16:42:19;;;;;;;;;;;;;;;;;;5184901;28;6969;-74
2022/10/20 16:44:56;;;;;;;;;;;;;;;;;;5184968;28;8082;-75
2022/10/20 16:47:29;;;;;;;;;;;;;;;;;;5185245;28;7074;-73
2022/10/20 16:50:03;;;;;;;;;;;;;;;;;;5184899;28;7066;-73
2022/10/20 16:52:37;;;;;;;;;;;;;;;;;;5184835;28;7171;-76
2022/10/20 16:55:10;;;;;;;;;;;;;;;;;;5200127;28;7156;-75
2022/10/20 16:57:45;;;;;;;;;;;;;;;;;;5199570;28;7192;-73
2022/10/20 17:00:22;;;;;;;;;;;;;;;;;;5200440;28;7110;-74
2022/10/20 17:02:57;;;;;;;;;;;;;;;;;;5199905;28;7150;-75
2022/10/20 17:05:34;;;;;;;;;;;;;;;;;;5197900;28;7136;-75
2022/10/20 17:08:09;;;;;;;;;;;;;;;;;;5183808;28;7127;-75
2022/10/20 17:10:48;;;;;;;;;;;;;;;;;;5183607;28;8139;-74
2022/10/20 17:13:28;;;;;;;;;;;;;;;;;;5184848;28;7150;-73
2022/10/20 17:16:04;;;;;;;;;;;;;;;;;;5200218;28;6985;-75
2022/10/20 17:18:38;;;;;;;;;;;;;;;;;;5184568;28;6976;-79
2022/10/20 17:21:12;;;;;;;;;;;;;;;;;;5193840;28;7268;-74
2022/10/20 17:23:48;;;;;;;;;;;;;;;;;;5186576;28;8060;-77
2022/10/20 17:26:23;;;;;;;;;;;;;;;;;;5186107;28;7159;-75
2022/10/20 17:28:59;;;;;;;;;;;;;;;;;;5170029;28;7127;-77
2022/10/20 17:31:35;;;;;;;;;;;;;;;;;;5170737;28;7057;-73
2022/10/20 17:34:14;;;;;;;;;;;;;;;;;;5186309;28;7071;-74
2022/10/20 17:36:50;;;;;;;;;;;;;;;;;;5201776;28;7362;-77
2022/10/20 17:39:23;;;;;;;;;;;;;;;;;;5170583;28;7073;-75
2022/10/20 17:41:57;;;;;;;;;;;;;;;;;;5170350;28;6993;-73
2022/10/20 17:44:32;;;;;;;;;;;;;;;;;;5200211;28;7218;-73
2022/10/20 17:47:08;;;;;;;;;;;;;;;;;;5186191;28;6980;-73
2022/10/20 17:49:43;;;;;;;;;;;;;;;;;;5170656;28;7025;-73
2022/10/20 17:52:16;;;;;;;;;;;;;;;;;;5168895;28;7102;-74
2022/10/20 17:54:50;;;;;;;;;;;;;;;;;;5185182;28;7141;-73
2022/10/20 17:57:24;;;;;;;;;;;;;;;;;;5169547;28;6988;-74
2022/10/20 18:00:02;;;;;;;;;;;;;;;;;;5185494;28;7113;-75
2022/10/20 18:02:49;;;;;;;;;;;;;;;;;;5201238;28;6982;-72
2022/10/20 18:05:22;;;;;;;;;;;;;;;;;;5169600;28;7039;-83
2022/10/20 18:07:55;;;;;;;;;;;;;;;;;;5168028;28;7170;-75
2022/10/20 18:10:29;;;;;;;;;;;;;;;;;;5168816;28;6981;-74
2022/10/20 18:13:02;;;;;;;;;;;;;;;;;;5170025;28;7067;-73
2022/10/20 18:15:42;;;;;;;;;;;;;;;;;;5169916;28;7119;-76
2022/10/20 18:18:16;;;;;;;;;;;;;;;;;;5169060;28;6992;-76
2022/10/20 18:20:56;;;;;;;;;;;;;;;;;;5169393;28;6994;-75
2022/10/20 18:23:30;;;;;;;;;;;;;;;;;;5169749;28;7084;-75
2022/10/20 18:26:05;;;;;;;;;;;;;;;;;;5169670;28;8086;-76
2022/10/20 18:28:42;;;;;;;;;;;;;;;;;;5168224;28;7159;-74
2022/10/20 18:31:29;;;;;;;;;;;;;;;;;;5169131;28;7112;-73
2022/10/20 18:34:08;;;;;;;;;;;;;;;;;;5183455;28;7116;-74
2022/10/20 18:36:42;;;;;;;;;;;;;;;;;;5168784;28;7236;-74
2022/10/20 18:39:18;;;;;;;;;;;;;;;;;;5201576;28;7056;-73
2022/10/20 18:41:54;;;;;;;;;;;;;;;;;;5184772;28;7085;-72
2022/10/20 18:44:29;;;;;;;;;;;;;;;;;;5168448;28;7199;-73
2022/10/20 18:47:10;;;;;;;;;;;;;;;;;;5168301;28;8150;-72
2022/10/20 18:49:44;;;;;;;;;;;;;;;;;;5166890;28;7295;-77
2022/10/20 18:52:17;;;;;;;;;;;;;;;;;;5165915;28;7210;-73
2022/10/20 18:54:53;;;;;;;;;;;;;;;;;;5159753;28;7144;-77
2022/10/20 18:57:27;;;;;;;;;;;;;;;;;;5167889;28;8149;-77
2022/10/20 19:00:02;;;;;;;;;;;;;;;;;;5168656;28;7079;-76
2022/10/20 19:02:38;;;;;;;;;;;;;;;;;;5168098;28;6997;-75
2022/10/20 19:05:11;;;;;;;;;;;;;;;;;;5168892;28;7078;-76
2022/10/20 19:07:45;;;;;;;;;;;;;;;;;;5184253;28;7085;-76
2022/10/20 19:10:18;;;;;;;;;;;;;;;;;;5168255;28;7199;-74
2022/10/20 19:12:56;;;;;;;;;;;;;;;;;;5168693;28;8254;-79
2022/10/20 19:15:30;;;;;;;;;;;;;;;;;;5168325;28;7072;-74
2022/10/20 19:18:05;;;;;;;;;;;;;;;;;;5167593;28;7134;-75
2022/10/20 19:20:40;;;;;;;;;;;;;;;;;;5177565;28;7070;-75
2022/10/20 19:23:13;;;;;;;;;;;;;;;;;;5168554;28;6995;-73
2022/10/20 19:25:46;;;;;;;;;;;;;;;;;;5167824;28;7183;-76
2022/10/20 19:28:20;;;;;;;;;;;;;;;;;;5168687;28;7127;-72
2022/10/20 19:30:56;;;;;;;;;;;;;;;;;;5168666;28;6991;-74
2022/10/20 19:33:33;;;;;;;;;;;;;;;;;;5184115;28;6988;-77
2022/10/20 19:36:07;;;;;;;;;;;;;;;;;;5183935;28;6983;-75
2022/10/20 19:38:40;;;;;;;;;;;;;;;;;;5151420;28;7196;-76
2022/10/20 19:41:15;;;;;;;;;;;;;;;;;;5167887;28;6989;-76
2022/10/20 19:43:52;;;;;;;;;;;;;;;;;;5168215;28;7089;-72
2022/10/20 19:46:28;;;;;;;;;;;;;;;;;;5183616;28;8124;-75
2022/10/20 19:49:02;;;;;;;;;;;;;;;;;;4821420;28;9999740;-73
2022/10/20 19:51:36;;;;;;;;;;;;;;;;;;5165368;28;7707;-75
2022/10/20 19:54:10;;;;;;;;;;;;;;;;;;5166048;28;7175;-74
2022/10/20 19:56:43;;;;;;;;;;;;;;;;;;5181585;28;7239;-76
2022/10/20 19:59:17;;;;;;;;;;;;;;;;;;5181928;28;7130;-77
2022/10/20 20:01:53;;;;;;;;;;;;;;;;;;5166707;28;7180;-72
2022/10/20 20:04:30;;;;;;;;;;;;;;;;;;5179056;28;7226;-73
2022/10/20 20:07:04;;;;;;;;;;;;;;;;;;5146411;28;7211;-73
2022/10/20 20:09:37;;;;;;;;;;;;;;;;;;5165752;28;7161;-72
2022/10/20 20:12:10;;;;;;;;;;;;;;;;;;5148984;28;7114;-76
2022/10/20 20:14:44;;;;;;;;;;;;;;;;;;5163207;28;7394;-71
2022/10/20 20:17:20;;;;;;;;;;;;;;;;;;5166054;28;7127;-72
2022/10/20 20:19:55;;;;;;;;;;;;;;;;;;5181536;28;7095;-74
2022/10/20 20:22:32;;;;;;;;;;;;;;;;;;5181168;28;6971;-74
2022/10/20 20:25:06;;;;;;;;;;;;;;;;;;5165796;28;7115;-75
2022/10/20 20:27:39;;;;;;;;;;;;;;;;;;5165729;28;7209;-72
2022/10/20 20:30:12;;;;;;;;;;;;;;;;;;5148845;28;7153;-75
2022/10/20 20:32:46;;;;;;;;;;;;;;;;;;5165232;28;7102;-73
2022/10/20 20:35:24;;;;;;;;;;;;;;;;;;5164764;28;7558;-76
2022/10/20 20:38:00;;;;;;;;;;;;;;;;;;5148542;28;7178;-74
2022/10/20 20:40:34;;;;;;;;;;;;;;;;;;5164908;28;7211;-74
2022/10/20 20:43:07;;;;;;;;;;;;;;;;;;5180202;28;7105;-72
2022/10/20 20:45:43;;;;;;;;;;;;;;;;;;5152963;28;8267;-71
2022/10/20 20:48:19;;;;;;;;;;;;;;;;;;5167615;28;8066;-74
2022/10/20 20:50:57;;;;;;;;;;;;;;;;;;5198974;28;7050;-74
2022/10/20 20:53:31;;;;;;;;;;;;;;;;;;5183119;28;7246;-73
2022/10/20 20:56:07;;;;;;;;;;;;;;;;;;5183826;28;7159;-72
2022/10/20 20:58:46;;;;;;;;;;;;;;;;;;5187059;28;7177;-74
2022/10/20 21:01:20;;;;;;;;;;;;;;;;;;5187026;28;7176;-73
2022/10/20 21:03:55;;;;;;;;;;;;;;;;;;5186877;28;7132;-75
2022/10/20 21:06:32;;;;;;;;;;;;;;;;;;5171534;28;7525;-75
2022/10/20 21:09:25;;;;;;;;;;;;;;;;;;5186671;28;6988;-74
2022/10/20 21:12:01;;;;;;;;;;;;;;;;;;5170984;28;7053;-75
2022/10/20 21:14:35;;;;;;;;;;;;;;;;;;5186622;28;7129;-72
2022/10/20 21:17:09;;;;;;;;;;;;;;;;;;5186322;28;7115;-74
2022/10/20 21:19:48;;;;;;;;;;;;;;;;;;5171090;28;6971;-76
2022/10/20 21:22:22;;;;;;;;;;;;;;;;;;5203034;28;7052;-74
2022/10/20 21:25:00;;;;;;;;;;;;;;;;;;5171110;28;7159;-73
2022/10/20 21:27:36;;;;;;;;;;;;;;;;;;5186437;28;7201;-72
2022/10/20 21:30:10;;;;;;;;;;;;;;;;;;5171356;28;7135;-70
2022/10/20 21:32:43;;;;;;;;;;;;;;;;;;5170697;28;8071;-74
2022/10/20 21:35:19;;;;;;;;;;;;;;;;;;5186204;28;7287;-74
2022/10/20 21:37:57;;;;;;;;;;;;;;;;;;5186308;28;6987;-75
2022/10/20 21:40:33;;;;;;;;;;;;;;;;;;5171163;28;7079;-74
2022/10/20 21:43:09;;;;;;;;;;;;;;;;;;5185924;28;8390;-70
2022/10/20 21:45:42;;;;;;;;;;;;;;;;;;5182517;28;7051;-69
2022/10/20 21:48:18;;;;;;;;;;;;;;;;;;5170456;28;7148;-74
2022/10/20 21:50:51;;;;;;;;;;;;;;;;;;5170521;28;7055;-70
2022/10/20 21:53:26;;;;;;;;;;;;;;;;;;5186170;28;7057;-73
2022/10/20 21:56:02;;;;;;;;;;;;;;;;;;5170511;28;7481;-73
2022/10/20 21:58:35;;;;;;;;;;;;;;;;;;5165457;28;8372;-71
2022/10/20 22:01:13;;;;;;;;;;;;;;;;;;5150416;28;7031;-73
2022/10/20 22:03:49;;;;;;;;;;;;;;;;;;5150671;28;7144;-73
2022/10/20 22:06:24;;;;;;;;;;;;;;;;;;5181750;28;7001;-73
2022/10/20 22:09:03;;;;;;;;;;;;;;;;;;5149929;28;7139;-73
2022/10/20 22:11:38;;;;;;;;;;;;;;;;;;5165485;28;7027;-75
2022/10/20 22:14:11;;;;;;;;;;;;;;;;;;5163775;28;7067;-72
2022/10/20 22:16:50;;;;;;;;;;;;;;;;;;5169353;28;7087;-71
2022/10/20 22:19:24;;;;;;;;;;;;;;;;;;5169250;28;6933;-74
2022/10/20 22:21:58;;;;;;;;;;;;;;;;;;5169807;28;6980;-72
2022/10/20 22:24:34;;;;;;;;;;;;;;;;;;5185446;28;7086;-74
2022/10/20 22:27:10;;;;;;;;;;;;;;;;;;5169815;28;7013;-73
2022/10/20 22:30:03;;;;;;;;;;;;;;;;;;5169934;28;7038;-72
2022/10/20 22:32:39;;;;;;;;;;;;;;;;;;5169153;28;7009;-74
2022/10/20 22:35:15;;;;;;;;;;;;;;;;;;5169970;28;7078;-73
2022/10/20 22:37:51;;;;;;;;;;;;;;;;;;5168728;28;6972;-77
2022/10/20 22:40:25;;;;;;;;;;;;;;;;;;5169190;28;7170;-71
2022/10/20 22:42:59;;;;;;;;;;;;;;;;;;5169133;28;6955;-73
2022/10/20 22:45:36;;;;;;;;;;;;;;;;;;5184850;28;7012;-74
2022/10/20 22:48:09;;;;;;;;;;;;;;;;;;5169554;28;7024;-74
2022/10/20 22:50:45;;;;;;;;;;;;;;;;;;5169576;28;7151;-71
2022/10/20 22:53:19;;;;;;;;;;;;;;;;;;5169413;28;7123;-75
2022/10/20 22:55:54;;;;;;;;;;;;;;;;;;5169243;28;6996;-75
2022/10/20 22:58:28;;;;;;;;;;;;;;;;;;5169275;28;7020;-74
2022/10/20 23:01:07;;;;;;;;;;;;;;;;;;5169363;28;7000;-72
2022/10/20 23:03:41;;;;;;;;;;;;;;;;;;5164210;28;7025;-73
2022/10/20 23:06:15;;;;;;;;;;;;;;;;;;5148169;28;6938;-73
2022/10/20 23:08:50;;;;;;;;;;;;;;;;;;5148685;28;6983;-71
2022/10/20 23:11:28;;;;;;;;;;;;;;;;;;5149009;28;7178;-72
2022/10/20 23:14:02;;;;;;;;;;;;;;;;;;5163952;28;7216;-75
2022/10/20 23:16:35;;;;;;;;;;;;;;;;;;5164358;28;7190;-72
2022/10/20 23:19:12;;;;;;;;;;;;;;;;;;5148392;28;6946;-75
2022/10/20 23:21:49;;;;;;;;;;;;;;;;;;5148684;28;8040;-74
2022/10/20 23:24:23;;;;;;;;;;;;;;;;;;5148564;28;7014;-76
2022/10/20 23:26:58;;;;;;;;;;;;;;;;;;5148624;28;7129;-73
2022/10/20 23:29:32;;;;;;;;;;;;;;;;;;5163653;28;7212;-73
2022/10/20 23:32:08;;;;;;;;;;;;;;;;;;5147949;28;6942;-75
2022/10/20 23:34:41;;;;;;;;;;;;;;;;;;5148312;28;7171;-72
2022/10/20 23:37:18;;;;;;;;;;;;;;;;;;5164113;28;7325;-73
2022/10/20 23:39:54;;;;;;;;;;;;;;;;;;5148276;28;7187;-75
2022/10/20 23:42:28;;;;;;;;;;;;;;;;;;5163749;28;7061;-73
2022/10/20 23:45:02;;;;;;;;;;;;;;;;;;5148157;28;8037;-71
2022/10/20 23:47:38;;;;;;;;;;;;;;;;;;5164385;28;6942;-73
2022/10/20 23:50:16;;;;;;;;;;;;;;;;;;5148205;28;7071;-76
2022/10/20 23:52:49;;;;;;;;;;;;;;;;;;5147731;28;7001;-74
2022/10/20 23:55:25;;;;;;;;;;;;;;;;;;5148251;28;6983;-73
2022/10/20 23:58:02;;;;;;;;;;;;;;;;;;5148347;28;7083;-73
